Nearby METAR Reports

CWGD - Goderich (autob), Ontario, Canada
Distance from station: SW 47km
Updated: 06/28/2017 8:00am
NOT Current

 Wind from WSW
Wind: WSW 9 km/h
Temperature: 17°C
Dew Point: 14°C
Humidity: 83%
2017/06/28 12:00 CWGD 281200Z AUTO 25005KT 17/14 RMK AO1 SLP181 T01730139 53013
CWLS - Mount Forest(Mar, Ontario, Canada
Distance from station: ESE 53km
Updated: 06/28/2017 11:00am

 Wind from W
Wind: W 13 km/h
Temperature: 19°C
Dew Point: 10°C
Humidity: 56%
2017/06/28 15:00 CWLS 281500Z AUTO 26007KT 19/10 RMK AO1 SLP189 T01930103 50008
 
CYVV - Wiarton Air, Ontario, Canada
Distance from station: NNE 75km
Updated: 06/28/2017 11:00am
Few Clouds
Few Clouds
 Wind from WSW
Wind: WSW 19 km/h, Gust: 28 km/h
Temperature: 20°C
Dew Point: 10°C
Humidity: 53%
Barometer: 1017.3 hPa
Clouds: Few Clouds
Visibility: 24 km
Cloud details: Few Clouds 7620 m
2017/06/28 15:00 CYVV 281500Z 24010G15KT 15SM FEW250 20/10 A3004 RMK CI1 SLP176 DENSITY ALT 1400FT
CZEL - Elora Rcs, Ontario, Canada
Distance from station: ESE 93km
Updated: 06/28/2017 11:00am

 Wind from W
Wind: W 20 km/h
Temperature: 20°C
Dew Point: 11°C
Humidity: 56%
2017/06/28 15:00 CZEL 281500Z AUTO 26011KT 20/11 RMK AO1 PK WND 26017/1440 SLP191 T01950110 50008
 
CWCO - Collingwood (aut, Ontario, Canada
Distance from station: ENE 104km
Updated: 06/28/2017 11:00am

 Wind from WNW
Wind: WNW 9 km/h
Temperature: 22°C
Dew Point: 10°C
Humidity: 47%
2017/06/28 15:00 CWCO 281500Z AUTO 29005KT 22/10 RMK AO1 SLP172 T02150100 50013
CYKF - Waterloo Well, Ontario, Canada
Distance from station: SE 107km
Updated: 06/28/2017 11:00am
Clear
Clear
 Wind from W
Wind: W 20 km/h, Gust: 35 km/h
Temperature: 21°C
Dew Point: 10°C
Humidity: 50%
Barometer: 1019 hPa
Clouds: Clear
Visibility: 14 km
2017/06/28 15:00 CYKF 281500Z AUTO 28011G19KT 9SM CLR 21/10 A3009 RMK SLP189 DENSITY ALT 1800FT
 
KP58 - Port Hope, Michigan, USA
Distance from station: W 114km
Updated: 06/28/2017 10:51am

 Wind from WSW
Wind: WSW 15 km/h
Temperature: 22°C
Dew Point: 10°C
Humidity: 47%
Barometer: 1017.3 hPa
2017/06/28 14:51 KP58 281451Z AUTO 25008KT 200V290 22/10 A3004 RMK AO1 SLP167 T02170100 50001
CYBN - Borden, Ontario, Canada
Distance from station: E 118km
Updated: 06/28/2017 11:00am
Few Clouds
Few Clouds
 Wind from WNW
Wind: WNW 13 km/h
Temperature: 22°C
Dew Point: 11°C
Humidity: 50%
Barometer: 1018.3 hPa
Clouds: Few Clouds
Visibility: 14 km
Cloud details: Few Clouds 1311 m
2017/06/28 15:00 CYBN 281500Z AUTO 30007KT 260V330 9SM FEW043 22/11 A3007 RMK ICG SLP183
 
CYXU - London Airport, Ontario, Canada
Distance from station: S 123km
Updated: 06/28/2017 11:00am
Mostly cloudy
Mostly cloudy
 Wind from WNW
Wind: WNW 9 km/h
Temperature: 21°C
Dew Point: 11°C
Humidity: 53%
Barometer: 1019 hPa
Clouds: Mostly cloudy
Visibility: 24 km
Cloud details: Few Clouds 1067 m
Mostly cloudy 5486 m
Mostly cloudy 8230 m
2017/06/28 15:00 CYXU 281500Z 29005KT 240V320 15SM FEW035 BKN180 BKN270 21/11 A3009 RMK CU1AC5CI2 CU TR SLP192 DENSITY ALT 1700FT
CXET - Egbert Cs, Ontario, Canada
Distance from station: E 128km
Updated: 06/28/2017 11:00am

 Wind from W
Wind: W 9 km/h
Temperature: 21°C
Dew Point: 9°C
Humidity: 46%
2017/06/28 15:00 CXET 281500Z AUTO 28005KT 21/09 RMK AO1 SLP179 T02050094 51009
 
CWMZ - Western Isl (map, Ontario, Canada
Distance from station: NE 129km
Updated: 06/28/2017 10:00am
NOT Current

 Wind from WSW
Wind: WSW 20 km/h
Temperature: 14°C
Dew Point: 12°C
Humidity: 88%
2017/06/28 14:00 CWMZ 281400Z AUTO 24011KT 14/12 RMK AO1 SLP171 T01440122 53011
KBAX - Bad Axe, Michigan, USA
Distance from station: WSW 133km
Updated: 06/28/2017 11:37am
Clear
Clear
 Wind from SW
Wind: SW 19 km/h
Temperature: 22°C
Dew Point: 11°C
Humidity: 50%
Barometer: 1018.3 hPa
Clouds: Clear
Visibility: 16 km
2017/06/28 15:37 KBAX 281537Z AUTO 22010KT 10SM CLR 22/11 A3007 RMK AO2 T02180110
 
CWWX - Cove Island (map, Ontario, Canada
Distance from station: NNW 137km
Updated: 06/28/2017 11:00am

 Wind from WSW
Wind: WSW 19 km/h, Gust: 30 km/h
Temperature: 18°C
Dew Point: 12°C
Humidity: 68%
2017/06/28 15:00 CWWX 281500Z AUTO 25010G16KT 18/12 RMK AO1 PK WND 26017/1422 SLP157 T01780122 50000
CYZR - Sarnia Airport, Ontario, Canada
Distance from station: SSW 144km
Updated: 06/28/2017 11:00am
Partly cloudy
Partly cloudy
 Wind from SW
Wind: SW 15 km/h
Temperature: 23°C
Dew Point: 9°C
Humidity: 41%
Barometer: 1019 hPa
Clouds: Partly cloudy
Visibility: 14 km
Cloud details: Partly cloudy 6096 m
2017/06/28 15:00 CYZR 281500Z AUTO 23008KT 9SM SCT200 23/09 A3009 RMK SLP188 DENSITY ALT 1400FT
 
CXHM - Hamilton Rbg Cs, Ontario, Canada
Distance from station: SE 150km
Updated: 06/28/2017 11:00am

 Wind from WSW
Wind: WSW 13 km/h
Temperature: 22°C
Dew Point: 12°C
Humidity: 53%
2017/06/28 15:00 CXHM 281500Z AUTO 25007KT 22/12 RMK AO1 SLP179 T02190121 50007
CYYZ - Toronto/Pearson, Ontario, Canada
Distance from station: ESE 150km
Updated: 06/28/2017 11:00am
Few Clouds
Few Clouds
 Wind from WSW
Wind: WSW 22 km/h, Gust: 33 km/h
Temperature: 22°C
Dew Point: 11°C
Humidity: 50%
Barometer: 1018.3 hPa
Clouds: Few Clouds
Visibility: 24 km
Cloud details: Few Clouds 1372 m
2017/06/28 15:00 CYYZ 281500Z 25012G18KT 15SM FEW045 22/11 A3007 RMK CU1 SLP184 DENSITY ALT 1400FT
 
CXBI - Barrie-Oro, Ontario, Canada
Distance from station: ENE 151km
Updated: 06/28/2017 11:00am

 Wind from WNW
Wind: WNW 17 km/h
Temperature: 20°C
Dew Point: 12°C
Humidity: 60%
2017/06/28 15:00 CXBI 281500Z AUTO 30009KT 20/12 RMK AO1 SLP183 T01990115
CXDI - Delhi Cs (aut), Ontario, Canada
Distance from station: SSE 154km
Updated: 06/28/2017 11:00am

 Wind from W
Wind: W 11 km/h
Temperature: 21°C
Dew Point: 9°C
Humidity: 46%
2017/06/28 15:00 CXDI 281500Z AUTO 26006KT 21/09 RMK AO1 SLP189 T02110088 50005
 
CWWB - Burlington Piers, Ontario, Canada
Distance from station: SE 157km
Updated: 06/28/2017 11:00am

 Wind from SW
Wind: SW 13 km/h
Temperature: 21°C
Dew Point: 10°C
Humidity: 50%
2017/06/28 15:00 CWWB 281500Z AUTO 23007KT 21/10 RMK AO1 SLP185 T02140103 50008
CYHM - Hamilton Airport, Ontario, Canada
Distance from station: SE 157km
Updated: 06/28/2017 11:00am
Partly cloudy
Partly cloudy
 Wind from WSW
Wind: WSW 20 km/h
Temperature: 21°C
Dew Point: 12°C
Humidity: 57%
Barometer: 1019.3 hPa
Clouds: Partly cloudy
Visibility: 24 km
Cloud details: Few Clouds 1219 m
Partly cloudy 1372 m
2017/06/28 15:00 CYHM 281500Z 24011KT 15SM FEW040 SCT045 21/12 A3010 RMK CU2SC1 SLP193 DENSITY ALT 1500FT